createdAt,value
2018-01-11T00:01:55.785Z,101050.53
2018-01-11T00:04:23.333Z,101050.55
2018-01-11T00:06:50.866Z,101046.98
2018-01-11T00:09:18.509Z,101050.97
2018-01-11T00:11:46.034Z,101047.98
2018-01-11T00:14:13.616Z,101047.45
2018-01-11T00:16:41.145Z,101050.08
2018-01-11T00:19:08.752Z,101042.54
2018-01-11T00:21:36.400Z,101039.87
2018-01-11T00:24:03.926Z,101038.56
2018-01-11T00:26:31.464Z,101040.79
2018-01-11T00:28:58.989Z,101036.33
2018-01-11T00:31:26.513Z,101040.74
2018-01-11T00:33:54.079Z,101039.48
2018-01-11T00:36:21.601Z,101052.34
2018-01-11T00:38:49.223Z,101042.08
2018-01-11T00:41:16.783Z,101034.59
2018-01-11T00:43:44.315Z,101040.31
2018-01-11T00:46:11.842Z,101032.38
2018-01-11T00:48:39.369Z,101031.92
2018-01-11T00:51:06.895Z,101034.54
2018-01-11T00:53:34.420Z,101027.05
2018-01-11T00:56:01.954Z,101034.99
2018-01-11T00:58:29.489Z,101029.66
2018-01-11T01:00:57.173Z,101035.83
2018-01-11T01:03:24.728Z,101035.89
2018-01-11T01:05:52.286Z,101044.69
2018-01-11T01:08:19.849Z,101039.78
2018-01-11T01:10:47.382Z,101042.95
2018-01-11T01:13:14.968Z,101040.69
2018-01-11T01:15:42.499Z,101040.22
2018-01-11T01:18:10.027Z,101047.77
2018-01-11T01:20:37.549Z,101045.66
2018-01-11T01:23:05.107Z,101046.95
2018-01-11T01:25:32.634Z,101049.61
2018-01-11T01:28:00.154Z,101051.80
2018-01-11T01:30:27.690Z,101056.26
2018-01-11T01:32:55.339Z,101051.80
2018-01-11T01:35:22.870Z,101057.11
2018-01-11T01:37:50.463Z,101059.73
2018-01-11T01:40:18.000Z,101056.18
2018-01-11T01:42:45.525Z,101051.77
2018-01-11T01:45:13.153Z,101056.65
2018-01-11T01:47:40.810Z,101056.57
2018-01-11T01:50:08.370Z,101059.66
2018-01-11T01:52:35.885Z,101058.31
2018-01-11T01:55:03.423Z,101060.63
2018-01-11T01:57:30.971Z,101057.55
2018-01-11T01:59:58.493Z,101058.83
2018-01-11T02:02:26.059Z,101059.30
2018-01-11T02:04:53.586Z,101059.30
2018-01-11T02:07:21.143Z,101052.28
2018-01-11T02:09:48.668Z,101054.92
2018-01-11T02:12:16.214Z,101055.78
2018-01-11T02:14:43.745Z,101058.41
2018-01-11T02:17:11.280Z,101058.80
2018-01-11T02:19:38.808Z,101061.88
2018-01-11T02:22:06.341Z,101061.43
2018-01-11T02:24:33.865Z,101060.55
2018-01-11T02:27:01.417Z,101071.14
2018-01-11T02:29:28.954Z,101073.82
2018-01-11T02:31:56.475Z,101070.30
2018-01-11T02:34:24.000Z,101068.95
2018-01-11T02:36:51.525Z,101072.97
2018-01-11T02:39:19.051Z,101072.95
2018-01-11T02:41:46.617Z,101072.10
2018-01-11T02:44:14.146Z,101072.52
2018-01-11T02:52:26.929Z,101074.77
2018-01-11T02:54:54.449Z,101080.52
2018-01-11T02:57:21.978Z,101082.30
2018-01-11T02:59:49.516Z,101086.27
2018-01-11T03:02:17.033Z,101084.08
2018-01-11T03:04:44.622Z,101082.83
2018-01-11T03:07:12.187Z,101081.48
2018-01-11T03:09:39.733Z,101083.28
2018-01-11T03:12:07.303Z,101081.07
2018-01-11T03:14:34.867Z,101079.73
2018-01-11T03:17:02.386Z,101082.78
2018-01-11T03:19:29.942Z,101081.03
2018-01-11T03:21:57.470Z,101077.90
2018-01-11T03:24:24.989Z,101080.16
2018-01-11T03:26:52.502Z,101077.03
2018-01-11T03:29:20.120Z,101073.06
2018-01-11T03:31:47.644Z,101073.53
2018-01-11T03:34:15.246Z,101073.05
2018-01-11T03:36:42.778Z,101075.29
2018-01-11T03:39:10.314Z,101077.92
2018-01-11T03:41:37.830Z,101077.91
2018-01-11T03:44:05.383Z,101072.59
2018-01-11T03:46:32.939Z,101074.84
2018-01-11T03:49:00.464Z,101079.21
2018-01-11T03:51:28.005Z,101079.67
2018-01-11T03:53:55.525Z,101075.26
2018-01-11T03:56:23.068Z,101074.84
2018-01-11T03:58:50.606Z,101079.25
2018-01-11T04:01:18.126Z,101073.91
2018-01-11T04:03:45.655Z,101080.13
2018-01-11T04:06:13.190Z,101081.00
2018-01-11T04:08:40.713Z,101078.81
2018-01-11T04:11:08.324Z,101085.02
2018-01-11T04:13:35.846Z,101084.99
2018-01-11T04:16:03.384Z,101088.08
2018-01-11T04:18:30.911Z,101085.02
2018-01-11T04:20:58.438Z,101085.44
2018-01-11T04:23:25.970Z,101084.14
2018-01-11T04:25:53.496Z,101087.24
2018-01-11T04:28:21.032Z,101092.97
2018-01-11T04:30:48.557Z,101080.16
2018-01-11T04:33:16.079Z,101091.69
2018-01-11T04:35:43.638Z,101087.72
2018-01-11T04:38:11.159Z,101083.20
2018-01-11T04:40:38.680Z,101086.78
2018-01-11T04:43:06.196Z,101084.58
2018-01-11T04:45:33.717Z,101091.18
2018-01-11T04:48:01.242Z,101095.66
2018-01-11T04:50:28.759Z,101093.90
2018-01-11T04:52:56.348Z,101093.00
2018-01-11T04:55:23.864Z,101092.60
2018-01-11T04:57:51.456Z,101090.78
2018-01-11T05:00:18.987Z,101088.99
2018-01-11T05:02:46.537Z,101097.84
2018-01-11T05:05:14.115Z,101095.25
2018-01-11T05:07:41.703Z,101104.46
2018-01-11T05:10:09.221Z,101106.69
2018-01-11T05:12:36.816Z,101109.38
2018-01-11T05:15:04.341Z,101107.61
2018-01-11T05:17:31.944Z,101110.23
2018-01-11T05:19:59.461Z,101104.51
2018-01-11T05:22:27.008Z,101105.38
2018-01-11T05:24:54.615Z,101110.22
2018-01-11T05:27:22.174Z,101113.27
2018-01-11T05:29:49.703Z,101111.92
2018-01-11T05:32:17.296Z,101118.07
2018-01-11T05:34:44.827Z,101119.83
2018-01-11T05:37:12.361Z,101122.52
2018-01-11T05:39:39.872Z,101126.05
2018-01-11T05:42:07.403Z,101121.20
2018-01-11T05:44:34.963Z,101118.57
2018-01-11T05:47:02.561Z,101117.64
2018-01-11T05:49:30.076Z,101110.55
2018-01-11T05:51:57.681Z,101111.00
2018-01-11T05:54:25.198Z,101114.94
2018-01-11T05:56:52.807Z,101126.05
2018-01-11T05:59:20.358Z,101122.13
2018-01-11T06:01:47.913Z,101125.13
2018-01-11T06:04:15.432Z,101126.93
2018-01-11T06:06:43.005Z,101124.27
2018-01-11T06:09:10.525Z,101129.08
2018-01-11T06:11:38.050Z,101125.09
2018-01-11T06:14:05.578Z,101129.08
2018-01-11T06:16:33.111Z,101137.92
2018-01-11T06:19:00.639Z,101138.34
2018-01-11T06:21:28.169Z,101143.13
2018-01-11T06:23:55.765Z,101138.36
2018-01-11T06:26:23.290Z,101148.05
2018-01-11T06:28:50.810Z,101150.22
2018-01-11T06:31:18.340Z,101151.52
2018-01-11T06:33:45.866Z,101151.51
2018-01-11T06:36:13.381Z,101162.08
2018-01-11T06:38:40.903Z,101159.89
2018-01-11T06:41:08.429Z,101164.75
2018-01-11T06:43:36.054Z,101158.97
2018-01-11T06:46:03.592Z,101162.53
2018-01-11T06:48:31.158Z,101161.27
2018-01-11T06:50:58.690Z,101173.69
2018-01-11T06:53:26.264Z,101171.03
2018-01-11T06:55:53.836Z,101164.34
2018-01-11T06:58:21.385Z,101169.63
2018-01-11T07:00:48.909Z,101163.89
2018-01-11T07:03:16.513Z,101168.23
2018-01-11T07:05:44.041Z,101162.55
2018-01-11T07:08:11.577Z,101164.34
2018-01-11T07:10:39.101Z,101159.47
2018-01-11T07:13:06.622Z,101161.62
2018-01-11T07:15:34.215Z,101158.45
2018-01-11T07:18:01.753Z,101173.52
2018-01-11T07:20:29.268Z,101177.53
2018-01-11T07:22:56.840Z,101173.97
2018-01-11T07:25:24.459Z,101174.48
2018-01-11T07:27:51.982Z,101175.84
2018-01-11T07:30:19.783Z,101175.40
2018-01-11T07:32:47.308Z,101174.13
2018-01-11T07:35:14.829Z,101179.46
2018-01-11T07:37:42.347Z,101181.64
2018-01-11T07:40:09.869Z,101177.64
2018-01-11T07:42:37.406Z,101179.84
2018-01-11T07:45:05.036Z,101180.24
2018-01-11T07:47:32.567Z,101185.19
2018-01-11T07:50:00.090Z,101178.12
2018-01-11T07:52:27.605Z,101181.61
2018-01-11T07:54:55.122Z,101178.91
2018-01-11T07:57:22.660Z,101173.64
2018-01-11T07:59:50.177Z,101171.97
2018-01-11T08:02:17.706Z,101174.71
2018-01-11T08:04:45.221Z,101175.59
2018-01-11T08:07:12.769Z,101172.00
2018-01-11T08:09:40.290Z,101184.30
2018-01-11T08:12:07.818Z,101184.33
2018-01-11T08:14:35.334Z,101191.83
2018-01-11T08:17:02.869Z,101193.59
2018-01-11T08:19:30.390Z,101194.02
2018-01-11T08:21:57.913Z,101197.13
2018-01-11T08:24:25.457Z,101198.86
2018-01-11T08:26:53.033Z,101202.43
2018-01-11T08:29:20.558Z,101199.72
2018-01-11T08:31:48.095Z,101212.96
2018-01-11T08:34:15.713Z,101210.80
2018-01-11T08:36:43.230Z,101220.05
2018-01-11T08:39:10.758Z,101227.52
2018-01-11T08:41:38.268Z,101223.13
2018-01-11T08:44:05.790Z,101226.72
2018-01-11T08:46:33.309Z,101236.05
2018-01-11T08:49:00.828Z,101231.09
2018-01-11T08:51:28.356Z,101231.11
2018-01-11T08:53:55.868Z,101235.05
2018-01-11T08:56:23.427Z,101237.20
2018-01-11T08:58:51.020Z,101239.45
2018-01-11T09:01:18.565Z,101245.58
2018-01-11T09:03:46.094Z,101244.23
2018-01-11T09:06:13.630Z,101245.56
2018-01-11T09:08:41.244Z,101247.29
2018-01-11T09:11:08.764Z,101249.45
2018-01-11T09:13:36.301Z,101252.97
2018-01-11T09:16:03.937Z,101252.07
2018-01-11T09:18:31.457Z,101253.81
2018-01-11T09:20:59.012Z,101248.91
2018-01-11T09:23:26.529Z,101258.67
2018-01-11T09:25:54.044Z,101267.09
2018-01-11T09:28:21.592Z,101265.32
2018-01-11T09:30:49.126Z,101267.06
2018-01-11T09:33:16.650Z,101276.85
2018-01-11T09:35:44.169Z,101279.05
2018-01-11T09:38:11.698Z,101290.09
2018-01-11T09:40:39.332Z,101286.22
2018-01-11T09:43:06.853Z,101293.73
2018-01-11T09:45:34.378Z,101292.80
2018-01-11T09:48:01.906Z,101289.20
2018-01-11T09:50:29.425Z,101291.88
2018-01-11T09:52:56.949Z,101296.31
2018-01-11T09:55:24.475Z,101295.42
2018-01-11T09:57:51.995Z,101296.66
2018-01-11T10:00:19.523Z,101298.45
2018-01-11T10:02:47.037Z,101290.94
2018-01-11T10:05:14.559Z,101291.83
2018-01-11T10:07:42.086Z,101299.89
2018-01-11T10:10:09.629Z,101299.51
2018-01-11T10:12:37.159Z,101299.97
2018-01-11T10:15:04.735Z,101305.67
2018-01-11T10:17:32.274Z,101300.36
2018-01-11T10:19:59.839Z,101298.09
2018-01-11T10:22:27.353Z,101293.20
2018-01-11T10:24:54.866Z,101301.22
2018-01-11T10:27:22.413Z,101306.98
2018-01-11T10:29:49.941Z,101300.33
2018-01-11T10:32:17.640Z,101290.06
2018-01-11T10:34:45.239Z,101295.39
2018-01-11T10:37:12.904Z,101296.77
2018-01-11T10:39:40.454Z,101308.27
2018-01-11T10:42:08.030Z,101311.22
2018-01-11T10:44:35.554Z,101306.81
2018-01-11T10:47:03.078Z,101306.80
2018-01-11T10:49:30.592Z,101314.81
2018-01-11T10:51:58.118Z,101314.34
2018-01-11T10:54:25.690Z,101322.80
2018-01-11T10:56:53.268Z,101318.89
2018-01-11T10:59:20.794Z,101316.28
2018-01-11T11:01:54.026Z,101317.59
2018-01-11T11:04:21.549Z,101318.44
2018-01-11T11:06:49.110Z,101317.60
2018-01-11T11:09:16.641Z,101317.63
2018-01-11T11:11:44.986Z,101316.20
2018-01-11T11:14:12.515Z,101323.24
2018-01-11T11:16:40.036Z,101323.19
2018-01-11T11:19:07.567Z,101318.32
2018-01-11T11:21:35.097Z,101313.03
2018-01-11T11:24:02.676Z,101316.55
2018-01-11T11:26:30.206Z,101321.52
2018-01-11T11:28:57.811Z,101320.11
2018-01-11T11:31:25.366Z,101315.59
2018-01-11T11:33:52.931Z,101317.84
2018-01-11T11:36:20.493Z,101314.75
2018-01-11T11:38:48.017Z,101325.61
2018-01-11T11:41:15.608Z,101328.09
2018-01-11T11:43:43.158Z,101319.16
2018-01-11T11:46:10.674Z,101320.83
2018-01-11T11:48:38.292Z,101325.66
2018-01-11T11:51:05.806Z,101324.27
2018-01-11T11:53:33.401Z,101318.16
2018-01-11T11:56:00.920Z,101311.06
2018-01-11T11:58:28.527Z,101316.32
2018-01-11T12:00:56.066Z,101310.53
2018-01-11T12:03:23.586Z,101312.38
2018-01-11T12:05:51.106Z,101315.50
2018-01-11T12:08:18.631Z,101321.65
2018-01-11T12:10:46.159Z,101319.38
2018-01-11T12:13:13.686Z,101317.67
2018-01-11T12:15:41.245Z,101315.94
2018-01-11T12:18:08.793Z,101318.97
2018-01-11T12:20:36.310Z,101322.83
2018-01-11T12:23:03.829Z,101325.42
2018-01-11T12:25:31.349Z,101325.44
2018-01-11T12:27:58.940Z,101329.02
2018-01-11T12:30:26.467Z,101325.40
2018-01-11T12:32:54.062Z,101325.27
2018-01-11T12:35:21.580Z,101326.94
2018-01-11T12:37:49.140Z,101326.92
2018-01-11T12:40:16.740Z,101330.39
2018-01-11T12:42:44.297Z,101329.69
2018-01-11T12:45:11.861Z,101334.86
2018-01-11T12:47:39.391Z,101337.91
2018-01-11T12:50:06.909Z,101335.41
2018-01-11T12:52:34.546Z,101338.37
2018-01-11T12:55:02.108Z,101333.47
2018-01-11T12:57:29.631Z,101340.62
2018-01-11T12:59:57.222Z,101337.95
2018-01-11T13:02:24.755Z,101333.52
2018-01-11T13:04:52.341Z,101338.48
2018-01-11T13:07:19.863Z,101341.66
2018-01-11T13:09:47.387Z,101346.10
2018-01-11T13:12:14.908Z,101354.12
2018-01-11T13:14:42.482Z,101359.42
2018-01-11T13:17:10.014Z,101368.86
2018-01-11T13:19:37.528Z,101367.42
2018-01-11T13:22:05.056Z,101376.29
2018-01-11T13:24:32.590Z,101368.69
2018-01-11T13:27:00.180Z,101374.89
2018-01-11T13:29:27.704Z,101375.30
2018-01-11T13:31:55.239Z,101375.21
2018-01-11T13:34:22.758Z,101375.76
2018-01-11T13:36:50.286Z,101382.36
2018-01-11T13:39:17.834Z,101385.47
2018-01-11T13:41:45.433Z,101382.83
2018-01-11T13:44:12.993Z,101382.31
2018-01-11T13:46:40.514Z,101385.02
2018-01-11T13:49:08.077Z,101386.36
2018-01-11T13:51:35.631Z,101389.47
2018-01-11T13:54:03.224Z,101393.55
2018-01-11T13:56:30.753Z,101391.38
2018-01-11T13:58:58.290Z,101390.59
2018-01-11T14:01:25.914Z,101392.26
2018-01-11T14:03:53.464Z,101397.57
2018-01-11T14:06:20.991Z,101393.91
2018-01-11T14:08:48.519Z,101395.81
2018-01-11T14:11:16.081Z,101397.57
2018-01-11T14:13:43.605Z,101404.65
2018-01-11T14:16:11.195Z,101407.22
2018-01-11T14:18:38.723Z,101414.77
2018-01-11T14:21:06.236Z,101413.39
2018-01-11T14:23:33.755Z,101415.56
2018-01-11T14:26:01.269Z,101417.76
2018-01-11T14:28:28.794Z,101418.19
2018-01-11T14:30:56.437Z,101420.45
2018-01-11T14:33:23.960Z,101420.97
2018-01-11T14:35:51.483Z,101430.85
2018-01-11T14:38:19.015Z,101433.09
2018-01-11T14:40:46.571Z,101431.73
2018-01-11T14:43:14.085Z,101432.29
2018-01-11T14:45:41.610Z,101440.22
2018-01-11T14:48:09.134Z,101448.19
2018-01-11T14:50:36.664Z,101452.59
2018-01-11T14:53:04.203Z,101453.89
2018-01-11T14:55:31.731Z,101456.56
2018-01-11T14:57:59.254Z,101460.97
2018-01-11T15:00:26.847Z,101461.41
2018-01-11T15:02:54.372Z,101465.83
2018-01-11T15:05:21.968Z,101464.53
2018-01-11T15:07:49.490Z,101472.93
2018-01-11T15:10:17.010Z,101474.71
2018-01-11T15:12:44.528Z,101474.30
2018-01-11T15:15:12.071Z,101475.66
2018-01-11T15:17:39.666Z,101480.14
2018-01-11T15:20:07.213Z,101488.96
2018-01-11T15:22:34.780Z,101491.13
2018-01-11T15:25:02.345Z,101491.13
2018-01-11T15:27:29.876Z,101492.46
2018-01-11T15:29:57.411Z,101504.83
2018-01-11T15:32:24.941Z,101503.12
2018-01-11T15:34:52.462Z,101507.56
2018-01-11T15:37:20.039Z,101513.78
2018-01-11T15:39:47.570Z,101514.73
2018-01-11T15:42:15.091Z,101513.84
2018-01-11T15:44:42.622Z,101510.72
2018-01-11T15:47:10.146Z,101521.27
2018-01-11T15:49:37.725Z,101522.65
2018-01-11T15:52:05.246Z,101524.47
2018-01-11T15:54:32.773Z,101529.36
2018-01-11T15:57:00.302Z,101523.62
2018-01-11T15:59:27.825Z,101524.45
2018-01-11T16:01:55.346Z,101525.77
2018-01-11T16:04:22.880Z,101527.58
2018-01-11T16:06:50.457Z,101525.33
2018-01-11T16:09:18.020Z,101530.19
2018-01-11T16:11:45.596Z,101532.89
2018-01-11T16:14:13.132Z,101534.63
2018-01-11T16:16:40.703Z,101531.63
2018-01-11T16:19:08.242Z,101544.48
2018-01-11T16:21:35.889Z,101538.31
2018-01-11T16:24:03.405Z,101538.30
2018-01-11T16:26:30.941Z,101536.55
2018-01-11T16:28:58.460Z,101539.19
2018-01-11T16:31:25.985Z,101542.71
2018-01-11T16:33:53.506Z,101538.31
2018-01-11T16:36:21.061Z,101551.98
2018-01-11T16:38:48.585Z,101548.87
2018-01-11T16:41:16.117Z,101547.59
2018-01-11T16:43:43.717Z,101548.05
2018-01-11T16:46:11.242Z,101551.17
2018-01-11T16:48:38.767Z,101557.81
2018-01-11T16:51:06.297Z,101556.02
2018-01-11T16:53:33.886Z,101551.56
2018-01-11T16:56:01.405Z,101557.79
2018-01-11T16:58:28.945Z,101566.22
2018-01-11T17:00:56.469Z,101572.00
2018-01-11T17:03:24.023Z,101581.73
2018-01-11T17:05:51.583Z,101581.75
2018-01-11T17:08:19.108Z,101583.50
2018-01-11T17:10:46.667Z,101585.71
2018-01-11T17:13:14.256Z,101584.41
2018-01-11T17:15:41.782Z,101585.77
2018-01-11T17:18:09.296Z,101590.19
2018-01-11T17:20:36.821Z,101583.56
2018-01-11T17:23:04.346Z,101594.19
2018-01-11T17:25:31.966Z,101596.39
2018-01-11T17:27:59.528Z,101595.92
2018-01-11T17:30:27.054Z,101595.03
2018-01-11T17:32:54.572Z,101605.22
2018-01-11T17:35:22.203Z,101610.56
2018-01-11T17:37:49.733Z,101612.75
2018-01-11T17:40:17.281Z,101619.39
2018-01-11T17:42:44.810Z,101622.95
2018-01-11T17:45:12.343Z,101620.72
2018-01-11T17:47:39.869Z,101631.78
2018-01-11T17:50:07.418Z,101628.70
2018-01-11T17:52:34.940Z,101637.53
2018-01-11T17:55:02.583Z,101639.30
2018-01-11T17:57:30.109Z,101639.28
2018-01-11T17:59:57.630Z,101645.50
2018-01-11T18:02:25.155Z,101647.23
2018-01-11T18:04:52.683Z,101650.78
2018-01-11T18:07:20.205Z,101656.08
2018-01-11T18:09:47.759Z,101654.34
2018-01-11T18:12:15.282Z,101657.40
2018-01-11T18:14:42.807Z,101652.55
2018-01-11T18:17:10.332Z,101654.77
2018-01-11T18:19:37.849Z,101658.77
2018-01-11T18:22:05.365Z,101657.87
2018-01-11T18:24:32.887Z,101662.27
2018-01-11T18:27:00.417Z,101660.95
2018-01-11T18:29:27.969Z,101664.48
2018-01-11T18:31:55.494Z,101658.73
2018-01-11T18:34:23.134Z,101661.84
2018-01-11T18:36:50.661Z,101662.72
2018-01-11T18:39:18.221Z,101664.48
2018-01-11T18:41:45.742Z,101671.55
2018-01-11T18:44:13.260Z,101673.33
2018-01-11T18:46:40.772Z,101675.98
2018-01-11T18:49:08.377Z,101679.09
2018-01-11T18:51:35.905Z,101678.63
2018-01-11T18:54:03.440Z,101685.28
2018-01-11T18:56:30.970Z,101686.58
2018-01-11T18:58:58.553Z,101689.23
2018-01-11T19:01:26.178Z,101692.77
2018-01-11T19:03:53.754Z,101694.10
2018-01-11T19:06:21.311Z,101692.33
2018-01-11T19:08:48.837Z,101694.52
2018-01-11T19:11:16.363Z,101700.30
2018-01-11T19:13:43.888Z,101696.74
2018-01-11T19:16:11.409Z,101703.84
2018-01-11T19:18:39.005Z,101706.91
2018-01-11T19:21:06.537Z,101708.21
2018-01-11T19:23:34.065Z,101714.87
2018-01-11T19:26:01.677Z,101719.73
2018-01-11T19:28:29.244Z,101718.85
2018-01-11T19:30:56.769Z,101721.49
2018-01-11T19:33:24.313Z,101718.86
2018-01-11T19:35:51.837Z,101724.16
2018-01-11T19:38:19.382Z,101734.31
2018-01-11T19:40:46.916Z,101734.80
2018-01-11T19:43:14.445Z,101734.36
2018-01-11T19:45:41.965Z,101732.56
2018-01-11T19:48:09.520Z,101740.98
2018-01-11T19:50:37.049Z,101743.62
2018-01-11T19:53:04.575Z,101747.63
2018-01-11T19:55:32.104Z,101740.98
2018-01-11T19:57:59.615Z,101745.39
2018-01-11T20:00:27.162Z,101748.05
2018-01-11T20:02:54.685Z,101754.22
2018-01-11T20:05:22.226Z,101767.03
2018-01-11T20:07:49.753Z,101769.65
2018-01-11T20:10:17.298Z,101775.38
2018-01-11T20:12:44.829Z,101779.83
2018-01-11T20:15:12.345Z,101782.48
2018-01-11T20:17:39.883Z,101785.10
2018-01-11T20:20:07.445Z,101782.44
2018-01-11T20:22:35.011Z,101789.11
2018-01-11T20:25:02.549Z,101789.98
2018-01-11T20:27:30.076Z,101793.07
2018-01-11T20:29:57.600Z,101789.55
2018-01-11T20:32:25.138Z,101791.75
2018-01-11T20:34:52.704Z,101791.33
2018-01-11T20:37:20.258Z,101793.11
2018-01-11T20:39:47.790Z,101794.84
2018-01-11T20:42:15.452Z,101797.92
2018-01-11T20:44:43.000Z,101796.64
2018-01-11T20:47:10.554Z,101801.94
2018-01-11T20:49:38.086Z,101805.91
2018-01-11T20:52:05.612Z,101810.34
2018-01-11T20:54:33.138Z,101809.84
2018-01-11T20:57:00.670Z,101812.47
2018-01-11T20:59:28.220Z,101809.37
2018-01-11T21:01:55.753Z,101807.64
2018-01-11T21:04:23.372Z,101810.74
2018-01-11T21:06:50.898Z,101817.79
2018-01-11T21:09:18.412Z,101813.41
2018-01-11T21:11:45.950Z,101823.57
2018-01-11T21:14:13.478Z,101833.70
2018-01-11T21:16:41.073Z,101844.30
2018-01-11T21:19:08.617Z,101839.45
2018-01-11T21:21:36.179Z,101844.29
2018-01-11T21:24:03.719Z,101845.66
2018-01-11T21:26:31.263Z,101850.53
2018-01-11T21:28:58.843Z,101854.07
2018-01-11T21:31:26.364Z,101861.12
2018-01-11T21:33:53.893Z,101862.91
2018-01-11T21:36:21.443Z,101873.52
2018-01-11T21:38:49.009Z,101879.70
2018-01-11T21:41:16.569Z,101880.48
2018-01-11T21:43:44.102Z,101885.36
2018-01-11T21:46:11.688Z,101884.46
2018-01-11T21:48:39.247Z,101886.67
2018-01-11T21:51:06.784Z,101885.78
2018-01-11T21:53:34.337Z,101881.34
2018-01-11T21:56:01.899Z,101887.97
2018-01-11T21:58:29.440Z,101886.17
2018-01-11T22:00:56.981Z,101893.27
2018-01-11T22:03:24.507Z,101899.03
2018-01-11T22:05:52.030Z,101896.33
2018-01-11T22:08:19.562Z,101896.83
2018-01-11T22:10:47.185Z,101899.48
2018-01-11T22:13:14.714Z,101909.19
2018-01-11T22:15:42.314Z,101913.64
2018-01-11T22:18:09.974Z,101915.41
2018-01-11T22:20:37.523Z,101913.20
2018-01-11T22:23:05.074Z,101917.17
2018-01-11T22:25:32.605Z,101917.13
2018-01-11T22:28:00.139Z,101918.53
2018-01-11T22:30:27.707Z,101919.77
2018-01-11T22:32:55.247Z,101921.56
2018-01-11T22:35:22.771Z,101925.49
2018-01-11T22:37:50.298Z,101929.05
2018-01-11T22:40:17.907Z,101934.80
2018-01-11T22:42:45.459Z,101937.89
2018-01-11T22:45:12.992Z,101934.77
2018-01-11T22:47:40.512Z,101931.65
2018-01-11T22:50:08.042Z,101933.05
2018-01-11T22:52:35.570Z,101937.89
2018-01-11T22:55:03.122Z,101936.64
2018-01-11T22:57:30.688Z,101947.25
2018-01-11T22:59:58.285Z,101948.16
2018-01-11T23:02:25.829Z,101949.92
2018-01-11T23:04:53.364Z,101949.09
2018-01-11T23:07:20.890Z,101953.09
2018-01-11T23:09:48.450Z,101959.70
2018-01-11T23:12:15.978Z,101961.03
2018-01-11T23:14:43.510Z,101968.05
2018-01-11T23:17:11.039Z,101965.39
2018-01-11T23:19:38.619Z,101961.85
2018-01-11T23:22:06.142Z,101961.39
2018-01-11T23:24:33.686Z,101963.67
2018-01-11T23:27:01.209Z,101961.83
2018-01-11T23:29:28.739Z,101967.16
2018-01-11T23:31:56.352Z,101968.48
2018-01-11T23:34:23.885Z,101960.61
2018-01-11T23:36:51.477Z,101964.19
2018-01-11T23:39:19.010Z,101968.59
2018-01-11T23:41:46.563Z,101970.77
2018-01-11T23:44:14.080Z,101973.84
2018-01-11T23:46:41.721Z,101979.09
2018-01-11T23:49:09.283Z,101980.05
2018-01-11T23:51:36.943Z,101976.48
2018-01-11T23:54:04.485Z,101971.58
2018-01-11T23:56:32.037Z,101966.75
2018-01-11T23:58:59.563Z,101973.81
